Airfield :
LOGIN :

Register | Disclaimer

   EN    FR    IT 

 










Legend :    VFR   Marginal VFR   IFR   Intensive IFR   Very Intensive IFR
Visi :
Ceiling :
>= 8 km
>= 3000ft
5 to 8 km
1000 to 3000 ft
1500m to 5 km
500 to 1000 ft
800 to 1500m
200 to 500 ft
< 800m
< 200 ft
Symbols :   Thunderstorms  Fog  Heavy snow  Heavy precipitations  Wind > 20 kt
SIGMETs :     Misc.  Thunderstorms  Icing  Turbulence  Mountain Waves  Volcanic Ashes






- Airport Elevation : 235 ft
- IATA code : BZG


EPBY - Bydgoszcz

CURRENT METAR :
  • 180800Z 07005KT 030V100 5000 BR BKN005 08/07 Q1020

EXPIRED METARs :
  • 180730Z 06005KT 030V090 6000 BKN005 08/07 Q1020
  • 180700Z 06006KT 8000 BKN005 08/07 Q1020
  • 180630Z 08006KT 7000 BKN005 07/07 Q1020
  • 180600Z 07005KT 9000 NSC 07/07 Q1019
  • 180530Z 06005KT 8000 NSC 07/06 Q1019

TAF AMD TAF EPBY
Valid from the 18 at 07:00 until the 19 at 06:00 UTC


180728Z 1807/1906 07010KT 9999 SCT040
TEMPO 1807/1818 5000 SHRA BKN005 BKN020CB
PROB30
TEMPO 1812/1817 3000 TSRA BKN014CB
TEMPO 1818/1906 VRB02KT 4000 BR



MET'MAP, your aeronautical weather chart ! - Copyright ORBIFLY December 2007 - Disclaimer

ORBIFLY MET'MAP TEAM :

Programming & Development : Alexandra Zaïnal
Concept & original design : Baudouin d'Aumeries
Assistance for programming : Marc-Olivier Méhu
Technical & hardware support : Manuel Goepfert

Contact : metmap@orbifly.com




SOURCES & CREDITS :

   NOAA